Terminal Aerodrome Forecast
Issued by NWS Medford, OR

Home | Current Version | Previous Version | Text Only | Print | Product List | Glossary On
Versions: 1 2 3 4 5 6 7 8 9 10 11 12 13 14 15 16 17 18
000
FTUS46 KMFR 201731
TAFMFR
TAF
KMFR 201731Z 2018/2118 VRB04KT 6SM -RA BR SCT001 OVC070
      WS020/20035KT
     FM202100 VRB03KT 4SM -RA BR OVC015 WS020/20035KT
     FM210400 VRB03KT 2SM RA BR OVC012 WS020/20035KT
     FM210900 00000KT 1SM RA BR OVC008 WS020/20035KT=

USA.gov is the U.S. government's official web portal to all federal, state and local government web resources and services.